Time;durP1;ratioP1;P1;durP2;ratioP2;P2;SDS_P1;SDS_P2;PMS_P1;PMS_P2;Temp;Humidity;BMP_temperature;BMP_pressure;BME280_temperature;BME280_humidity;BME280_pressure;Samples;Min_cycle;Max_cycle;Signal;HPM_P1;HPM_P2
2022/06/29 00:00:25;;;;;;;5.55;2.60;;;22.90;96.70;;;;;;4199359;28;20028;-62
2022/06/29 00:02:26;;;;;;;3.60;2.30;;;22.90;96.80;;;;;;4210259;28;20090;-63
2022/06/29 00:04:27;;;;;;;2.65;2.40;;;22.90;96.90;;;;;;4209534;28;20036;-62
2022/06/29 00:06:29;;;;;;;5.65;2.40;;;22.80;97.00;;;;;;4211689;28;20028;-64
2022/06/29 00:08:30;;;;;;;2.75;2.55;;;22.80;97.10;;;;;;4210504;28;20008;-62
2022/06/29 00:10:31;;;;;;;3.92;2.55;;;22.70;97.20;;;;;;4209710;28;20036;-62
2022/06/29 00:12:32;;;;;;;5.30;2.45;;;22.70;97.30;;;;;;4210909;28;20032;-61
2022/06/29 00:14:41;;;;;;;3.60;2.25;;;22.70;97.40;;;;;;4197888;28;20049;-62
2022/06/29 00:16:42;;;;;;;2.55;2.35;;;22.60;97.60;;;;;;4194428;28;20036;-62
2022/06/29 00:18:44;;;;;;;4.22;2.28;;;22.60;97.60;;;;;;4193996;28;20125;-60
2022/06/29 00:20:46;;;;;;;3.25;2.65;;;22.60;97.70;;;;;;4194753;28;20037;-61
2022/06/29 00:22:47;;;;;;;4.55;2.80;;;22.60;97.70;;;;;;4193981;28;20086;-62
2022/06/29 00:24:48;;;;;;;3.33;2.45;;;22.50;97.90;;;;;;4194938;28;20086;-62
2022/06/29 00:26:50;;;;;;;3.10;2.40;;;22.50;98.00;;;;;;4194451;28;20082;-65
2022/06/29 00:28:51;;;;;;;3.28;2.60;;;22.50;98.10;;;;;;4211325;28;20048;-65
2022/06/29 00:30:52;;;;;;;4.80;2.72;;;22.40;98.20;;;;;;4210153;28;20478;-62
2022/06/29 00:32:53;;;;;;;3.72;2.83;;;22.40;98.30;;;;;;4211822;28;20386;-63
2022/06/29 00:34:55;;;;;;;5.40;2.72;;;22.40;98.60;;;;;;4210044;28;20044;-60
2022/06/29 00:36:56;;;;;;;4.32;2.95;;;22.20;99.10;;;;;;4210561;28;20434;-62
2022/06/29 00:38:57;;;;;;;3.15;2.83;;;22.20;99.60;;;;;;4210192;28;20077;-62
2022/06/29 00:40:58;;;;;;;6.90;3.28;;;22.10;99.90;;;;;;4205119;28;20032;-63
2022/06/29 00:42:59;;;;;;;6.93;3.40;;;21.90;99.90;;;;;;4193863;28;20059;-61
2022/06/29 00:45:00;;;;;;;6.35;3.05;;;21.90;99.90;;;;;;4194083;28;20436;-65
2022/06/29 00:47:04;;;;;;;5.70;2.95;;;21.80;99.90;;;;;;4194199;28;20477;-61
2022/06/29 00:49:05;;;;;;;7.05;3.40;;;21.70;99.90;;;;;;4193917;28;20767;-62
2022/06/29 00:51:10;;;;;;;11.02;3.55;;;21.50;99.90;;;;;;4194168;28;20070;-63
2022/06/29 00:53:15;;;;;;;7.53;2.75;;;21.40;99.90;;;;;;4193563;28;20102;-64
2022/06/29 00:55:20;;;;;;;4.57;2.85;;;21.20;99.90;;;;;;4205623;28;20056;-65
2022/06/29 00:57:26;;;;;;;6.15;2.95;;;21.20;99.90;;;;;;4209786;28;20036;-65
2022/06/29 00:59:32;;;;;;;4.18;3.38;;;21.10;99.90;;;;;;4211002;28;20450;-65
2022/06/29 01:01:35;;;;;;;7.60;3.20;;;21.00;99.90;;;;;;4210153;28;20073;-62
2022/06/29 01:03:36;;;;;;;14.80;3.70;;;20.90;99.90;;;;;;4204641;28;20044;-62
2022/06/29 01:05:37;;;;;;;4.68;3.25;;;20.90;99.90;;;;;;4193512;28;20078;-65
2022/06/29 01:07:39;;;;;;;3.92;3.25;;;20.80;99.90;;;;;;4194545;28;20086;-62
2022/06/29 01:09:40;;;;;;;5.95;3.42;;;20.80;99.90;;;;;;4191775;28;20480;-61
2022/06/29 01:11:41;;;;;;;3.75;3.45;;;20.80;99.90;;;;;;4195062;28;20048;-60
2022/06/29 01:13:43;;;;;;;8.88;3.85;;;20.80;99.90;;;;;;4193359;28;20037;-62
2022/06/29 01:15:45;;;;;;;8.75;3.70;;;20.80;99.90;;;;;;4195075;28;20052;-64
2022/06/29 01:17:46;;;;;;;6.88;3.47;;;20.80;99.90;;;;;;4196213;28;20514;-66
2022/06/29 01:19:48;;;;;;;7.93;3.38;;;20.80;99.90;;;;;;4197141;28;20036;-63
2022/06/29 01:21:51;;;;;;;8.80;4.15;;;20.90;99.90;;;;;;4196561;28;20433;-62
2022/06/29 01:23:52;;;;;;;7.38;3.80;;;20.80;99.90;;;;;;4196850;28;20047;-66
2022/06/29 01:25:54;;;;;;;6.93;4.05;;;20.80;99.90;;;;;;4209194;28;20036;-64
2022/06/29 01:27:55;;;;;;;7.22;4.07;;;20.80;99.90;;;;;;4213060;28;20120;-66
2022/06/29 01:29:57;;;;;;;13.55;5.53;;;20.70;99.90;;;;;;4210580;28;20439;-60
2022/06/29 01:31:58;;;;;;;12.48;5.95;;;20.70;99.90;;;;;;4196495;28;20496;-62
2022/06/29 01:34:03;;;;;;;11.85;5.72;;;20.60;99.90;;;;;;4197415;28;20097;-64
2022/06/29 01:36:04;;;;;;;10.10;6.80;;;20.60;99.90;;;;;;4195992;28;20032;-62
2022/06/29 01:38:06;;;;;;;10.38;7.65;;;20.50;99.90;;;;;;4197160;28;20048;-62
2022/06/29 01:40:08;;;;;;;8.82;5.97;;;20.50;99.90;;;;;;4196018;28;20036;-61
2022/06/29 01:42:10;;;;;;;4.22;3.70;;;20.50;99.90;;;;;;4213187;28;20048;-63
2022/06/29 01:44:11;;;;;;;6.82;3.60;;;20.50;99.90;;;;;;4212462;28;20032;-62
2022/06/29 01:46:12;;;;;;;4.65;3.20;;;20.40;99.90;;;;;;4213620;28;20044;-61
2022/06/29 01:48:13;;;;;;;4.47;3.20;;;20.50;99.90;;;;;;4212497;28;20032;-64
2022/06/29 01:50:14;;;;;;;3.90;3.15;;;20.40;99.90;;;;;;4213581;28;20032;-65
2022/06/29 01:52:15;;;;;;;5.32;3.50;;;20.40;99.90;;;;;;4212635;28;20028;-63
2022/06/29 01:54:17;;;;;;;6.88;3.72;;;20.50;99.90;;;;;;4201764;28;20558;-60
2022/06/29 01:56:18;;;;;;;5.07;3.20;;;20.50;99.90;;;;;;4198868;28;20036;-62
2022/06/29 01:58:19;;;;;;;5.88;4.00;;;20.50;99.90;;;;;;4212599;28;20040;-64
2022/06/29 02:00:20;;;;;;;4.32;3.92;;;20.40;99.90;;;;;;4212966;28;20028;-65
2022/06/29 02:02:22;;;;;;;5.88;4.03;;;20.30;99.90;;;;;;4212327;28;20028;-65
2022/06/29 02:04:23;;;;;;;7.70;4.55;;;20.30;99.90;;;;;;4213166;28;20097;-61
2022/06/29 02:06:25;;;;;;;8.00;4.45;;;20.10;99.90;;;;;;4212193;28;20081;-63
2022/06/29 02:08:26;;;;;;;4.28;3.55;;;20.10;99.90;;;;;;4213060;28;20458;-64
2022/06/29 02:10:27;;;;;;;4.88;3.92;;;20.10;99.90;;;;;;4212097;28;20028;-61
2022/06/29 02:12:28;;;;;;;3.92;3.53;;;20.10;99.90;;;;;;4197226;28;20036;-62
2022/06/29 02:14:30;;;;;;;4.05;3.65;;;20.10;99.90;;;;;;4195715;28;20680;-61
2022/06/29 02:16:31;;;;;;;4.82;4.13;;;20.10;99.90;;;;;;4196257;28;20021;-61
2022/06/29 02:18:32;;;;;;;4.70;4.13;;;20.10;99.90;;;;;;4195598;28;20138;-61
2022/06/29 02:20:33;;;;;;;7.47;3.90;;;20.10;99.90;;;;;;4196597;28;20045;-66
2022/06/29 02:22:35;;;;;;;4.60;4.15;;;20.10;99.90;;;;;;4195137;28;20033;-65
2022/06/29 02:24:36;;;;;;;7.40;4.07;;;20.00;99.90;;;;;;4196097;28;20062;-66
2022/06/29 02:26:37;;;;;;;10.93;3.92;;;20.10;99.90;;;;;;4209671;28;20044;-61
2022/06/29 02:28:38;;;;;;;5.43;3.58;;;20.10;99.90;;;;;;4206349;28;20070;-63
2022/06/29 02:35:19;;;;;;;7.15;4.18;;;20.00;99.90;;;;;;4195645;28;20048;-62
2022/06/29 02:37:20;;;;;;;12.25;4.60;;;20.00;99.90;;;;;;4195351;28;20119;-66
2022/06/29 02:39:21;;;;;;;9.65;4.00;;;19.90;99.90;;;;;;4195493;28;20033;-63
2022/06/29 02:41:22;;;;;;;6.95;3.58;;;19.90;99.90;;;;;;4193269;28;20074;-64
2022/06/29 02:43:24;;;;;;;5.53;4.13;;;19.80;99.90;;;;;;4196808;28;20106;-64
2022/06/29 02:45:25;;;;;;;4.88;3.35;;;19.80;99.90;;;;;;4194649;28;20033;-65
2022/06/29 02:47:27;;;;;;;11.27;3.65;;;19.80;99.90;;;;;;4195721;28;20040;-61
2022/06/29 02:49:28;;;;;;;7.22;3.42;;;19.80;99.90;;;;;;4194886;28;20048;-63
2022/06/29 02:51:30;;;;;;;8.48;4.50;;;19.90;99.90;;;;;;4195790;28;20477;-65
2022/06/29 02:53:31;;;;;;;8.43;3.72;;;20.10;99.90;;;;;;4194574;28;20025;-62
2022/06/29 02:55:32;;;;;;;5.20;3.80;;;20.30;99.90;;;;;;4195925;28;20121;-64
2022/06/29 02:57:33;;;;;;;8.20;4.50;;;20.50;99.90;;;;;;4194360;28;20029;-64
2022/06/29 02:59:34;;;;;;;6.07;3.45;;;20.70;99.90;;;;;;4197040;28;20048;-63
2022/06/29 03:01:36;;;;;;;6.50;3.42;;;21.00;99.90;;;;;;4194426;28;20538;-63
2022/06/29 03:03:37;;;;;;;6.07;3.47;;;21.20;99.90;;;;;;4195611;28;20122;-66
2022/06/29 03:05:38;;;;;;;6.05;3.40;;;21.40;99.90;;;;;;4194888;28;20086;-62
2022/06/29 03:07:39;;;;;;;4.65;4.10;;;21.50;99.90;;;;;;4195247;28;20423;-66
2022/06/29 03:09:40;;;;;;;6.53;3.30;;;21.70;99.90;;;;;;4194916;28;20419;-66
2022/06/29 03:11:41;;;;;;;5.00;3.05;;;21.80;99.90;;;;;;4194579;28;20083;-64
2022/06/29 03:13:42;;;;;;;5.47;3.20;;;22.10;99.90;;;;;;4197238;28;20089;-65
2022/06/29 03:15:44;;;;;;;6.22;3.67;;;22.30;99.90;;;;;;4211000;28;20052;-62
2022/06/29 03:17:45;;;;;;;7.53;3.20;;;22.50;99.90;;;;;;4211770;28;20085;-62
2022/06/29 03:19:46;;;;;;;5.30;2.70;;;22.80;99.90;;;;;;4210979;28;20472;-62
2022/06/29 03:21:47;;;;;;;6.60;3.45;;;23.00;99.90;;;;;;4211606;28;20066;-63
2022/06/29 03:23:48;;;;;;;4.22;2.92;;;23.30;99.90;;;;;;4210761;28;20101;-62
2022/06/29 03:25:50;;;;;;;6.55;3.13;;;23.40;99.90;;;;;;4211605;28;20085;-65
2022/06/29 03:27:51;;;;;;;5.65;2.85;;;23.70;99.90;;;;;;4210260;28;20040;-61
2022/06/29 03:29:52;;;;;;;7.03;2.92;;;23.90;99.90;;;;;;4195468;28;20451;-66
2022/06/29 03:31:54;;;;;;;4.32;3.13;;;24.10;99.90;;;;;;4193884;28;20078;-62
2022/06/29 03:33:55;;;;;;;7.97;3.53;;;24.40;99.90;;;;;;4195494;28;20538;-63
2022/06/29 03:35:56;;;;;;;7.95;3.45;;;24.60;99.90;;;;;;4194152;28;20091;-62
2022/06/29 03:37:57;;;;;;;5.05;3.53;;;25.00;99.90;;;;;;4194774;28;20045;-61
2022/06/29 03:39:58;;;;;;;4.97;3.00;;;25.10;99.90;;;;;;4194843;28;20024;-63
2022/06/29 03:42:00;;;;;;;10.88;3.70;;;25.10;99.90;;;;;;4194335;28;20062;-62
2022/06/29 03:44:01;;;;;;;10.02;3.70;;;25.30;99.90;;;;;;4198241;28;20058;-62
2022/06/29 03:46:02;;;;;;;6.88;3.33;;;25.50;99.90;;;;;;4193874;28;20157;-60
2022/06/29 03:48:03;;;;;;;5.63;2.78;;;25.80;99.90;;;;;;4195072;28;20459;-61
2022/06/29 03:50:07;;;;;;;5.70;2.70;;;26.20;99.90;;;;;;4193645;28;20448;-62
2022/06/29 03:52:08;;;;;;;6.97;3.10;;;26.70;99.90;;;;;;4194796;28;20106;-63
2022/06/29 03:54:09;;;;;;;4.20;2.40;;;27.10;99.90;;;;;;4193642;28;20041;-66
2022/06/29 03:56:10;;;;;;;6.50;3.03;;;27.10;99.50;;;;;;4194584;28;20052;-64
2022/06/29 03:58:12;;;;;;;12.73;4.32;;;27.30;99.10;;;;;;4204072;28;20024;-67
2022/06/29 04:00:13;;;;;;;10.10;3.60;;;27.40;98.70;;;;;;4210770;28;20492;-63
2022/06/29 04:02:14;;;;;;;7.13;3.85;;;27.40;98.40;;;;;;4210049;28;20028;-64
2022/06/29 04:04:16;;;;;;;15.02;3.88;;;27.30;98.30;;;;;;4212007;28;20089;-63
2022/06/29 04:06:18;;;;;;;14.85;3.50;;;27.30;98.20;;;;;;4210454;28;20077;-64
2022/06/29 04:08:19;;;;;;;7.28;3.78;;;27.60;98.00;;;;;;4211037;28;20081;-69
2022/06/29 04:10:20;;;;;;;5.20;3.20;;;27.70;97.60;;;;;;4210000;28;20488;-62
2022/06/29 04:12:21;;;;;;;7.03;3.78;;;27.70;97.40;;;;;;4208305;28;20538;-67
2022/06/29 04:14:25;;;;;;;7.93;3.97;;;27.70;97.30;;;;;;4194363;28;20154;-63
2022/06/29 04:16:26;;;;;;;7.15;3.40;;;27.60;97.10;;;;;;4204804;28;20147;-69
2022/06/29 04:18:28;;;;;;;8.60;3.95;;;27.60;97.10;;;;;;4210824;28;20031;-66
2022/06/29 04:22:48;;;;;;;10.18;3.72;;;27.90;96.70;;;;;;4209605;28;20058;-65
2022/06/29 04:24:50;;;;;;;9.93;4.35;;;27.90;96.50;;;;;;4209586;28;20069;-65
2022/06/29 04:26:51;;;;;;;21.17;4.50;;;27.70;96.40;;;;;;4211030;28;20024;-63
2022/06/29 04:28:53;;;;;;;24.08;4.85;;;27.40;96.50;;;;;;4210057;28;20077;-63
2022/06/29 04:30:54;;;;;;;16.75;4.65;;;26.90;96.90;;;;;;4210685;28;20036;-65
2022/06/29 04:32:55;;;;;;;16.80;5.07;;;26.60;97.20;;;;;;4193506;28;20127;-60
2022/06/29 04:34:56;;;;;;;17.70;4.57;;;26.50;97.30;;;;;;4194922;28;20028;-66
2022/06/29 04:36:57;;;;;;;13.43;5.00;;;26.60;97.40;;;;;;4193069;28;20094;-64
2022/06/29 04:38:59;;;;;;;18.08;4.40;;;26.40;97.30;;;;;;4194501;28;20024;-63
2022/06/29 04:41:00;;;;;;;15.38;4.07;;;26.30;97.50;;;;;;4200010;28;20086;-70
2022/06/29 04:43:02;;;;;;;12.32;4.13;;;26.30;97.50;;;;;;4198066;28;20063;-63
2022/06/29 04:45:03;;;;;;;9.50;4.07;;;26.30;97.60;;;;;;4181699;28;20036;-62
2022/06/29 04:47:04;;;;;;;9.75;4.40;;;26.30;97.50;;;;;;4196131;28;20081;-65
2022/06/29 04:49:06;;;;;;;10.85;4.85;;;26.20;97.60;;;;;;4195973;28;20037;-67
2022/06/29 04:51:07;;;;;;;11.88;4.75;;;26.30;97.50;;;;;;4201784;28;20508;-63
2022/06/29 04:53:08;;;;;;;8.18;3.83;;;26.40;97.50;;;;;;4197248;28;20501;-62
2022/06/29 04:55:09;;;;;;;9.18;4.40;;;26.40;97.30;;;;;;4196158;28;20048;-67
2022/06/29 04:57:11;;;;;;;15.43;5.05;;;26.00;97.40;;;;;;4195690;28;20117;-63
2022/06/29 04:59:12;;;;;;;9.90;4.60;;;25.70;97.70;;;;;;4196101;28;20110;-62
2022/06/29 05:01:13;;;;;;;12.13;4.20;;;25.50;98.00;;;;;;4197813;28;20093;-65
2022/06/29 05:03:14;;;;;;;10.25;4.50;;;25.30;98.20;;;;;;4195975;28;20153;-66
2022/06/29 05:05:15;;;;;;;7.22;4.55;;;25.40;98.20;;;;;;4197849;28;20045;-61
2022/06/29 05:07:16;;;;;;;11.23;4.28;;;25.30;98.30;;;;;;4195310;28;20446;-61
2022/06/29 05:09:18;;;;;;;9.27;4.63;;;25.40;98.30;;;;;;4197034;28;20480;-68
2022/06/29 05:11:22;;;;;;;10.05;3.95;;;25.50;98.20;;;;;;4196006;28;20089;-63
2022/06/29 05:13:23;;;;;;;9.68;4.43;;;25.30;98.30;;;;;;4199999;28;20403;-63
2022/06/29 05:15:25;;;;;;;15.07;4.63;;;25.60;98.40;;;;;;4195599;28;20045;-65
2022/06/29 05:17:28;;;;;;;10.10;4.80;;;25.80;98.30;;;;;;4196015;28;20041;-67
2022/06/29 05:19:29;;;;;;;11.27;5.15;;;26.20;97.90;;;;;;4196121;28;20013;-62
2022/06/29 05:21:30;;;;;;;16.75;5.30;;;26.40;97.60;;;;;;4195200;28;20058;-61
2022/06/29 05:23:32;;;;;;;14.43;5.30;;;26.60;97.40;;;;;;4193084;28;20045;-66
2022/06/29 05:25:33;;;;;;;18.42;5.10;;;26.70;97.30;;;;;;4195839;28;20048;-61
2022/06/29 05:27:34;;;;;;;18.58;5.13;;;26.90;97.20;;;;;;4197202;28;20029;-60
2022/06/29 05:29:36;;;;;;;10.88;4.10;;;27.50;96.70;;;;;;4203461;28;20039;-62
2022/06/29 05:31:37;;;;;;;5.82;3.20;;;27.70;96.00;;;;;;4213387;28;20044;-68
2022/06/29 05:33:38;;;;;;;10.57;3.88;;;27.80;95.70;;;;;;4212260;28;20044;-61
2022/06/29 05:35:39;;;;;;;9.68;3.90;;;28.00;95.40;;;;;;4212968;28;20054;-66
2022/06/29 05:37:40;;;;;;;9.57;4.72;;;28.60;95.00;;;;;;4211823;28;20089;-64
2022/06/29 05:39:42;;;;;;;9.35;4.20;;;29.10;94.50;;;;;;4213009;28;20094;-62
2022/06/29 05:41:43;;;;;;;8.50;4.47;;;29.60;94.10;;;;;;4211713;28;20036;-62
2022/06/29 05:43:49;;;;;;;10.55;4.90;;;30.10;93.50;;;;;;4212873;28;20048;-62
2022/06/29 05:45:51;;;;;;;11.70;5.20;;;29.60;93.40;;;;;;4210525;28;20039;-60
2022/06/29 05:47:53;;;;;;;7.75;4.85;;;29.10;93.80;;;;;;4211410;28;20530;-62
2022/06/29 05:49:57;;;;;;;13.25;5.50;;;28.70;93.80;;;;;;4211875;28;20455;-63
2022/06/29 05:51:58;;;;;;;9.57;4.47;;;28.60;94.00;;;;;;4212445;28;20016;-62
2022/06/29 05:53:59;;;;;;;10.27;4.45;;;28.60;93.90;;;;;;4212588;28;20039;-61
2022/06/29 05:56:00;;;;;;;15.05;4.63;;;28.80;93.80;;;;;;4211460;28;20119;-63
2022/06/29 05:58:01;;;;;;;11.00;4.35;;;29.00;93.70;;;;;;4212724;28;20036;-67
2022/06/29 06:00:04;;;;;;;12.23;5.00;;;29.60;93.20;;;;;;4211663;28;20383;-62
2022/06/29 06:02:06;;;;;;;12.00;4.53;;;30.00;92.70;;;;;;4211962;28;20089;-62
2022/06/29 06:04:07;;;;;;;7.95;4.00;;;29.70;92.40;;;;;;4211794;28;20082;-62
2022/06/29 06:06:08;;;;;;;11.60;3.92;;;29.20;92.30;;;;;;4212694;28;20032;-63
2022/06/29 06:08:09;;;;;;;11.52;4.53;;;28.20;92.70;;;;;;4211662;28;20083;-66
2022/06/29 06:10:11;;;;;;;7.75;4.50;;;27.70;93.50;;;;;;4212537;28;20040;-61
2022/06/29 06:12:12;;;;;;;10.80;5.13;;;27.30;94.00;;;;;;4211435;28;20542;-64
2022/06/29 06:14:13;;;;;;;10.88;4.30;;;27.50;94.10;;;;;;4212813;28;20040;-63
2022/06/29 06:16:14;;;;;;;11.65;4.78;;;27.90;94.00;;;;;;4211582;28;20074;-62
2022/06/29 06:18:15;;;;;;;7.13;4.82;;;28.40;93.60;;;;;;4212614;28;20024;-61
2022/06/29 06:20:17;;;;;;;10.55;4.93;;;28.50;93.30;;;;;;4211750;28;20054;-63
2022/06/29 06:22:18;;;;;;;8.07;4.40;;;28.70;93.20;;;;;;4212185;28;20028;-68
2022/06/29 06:24:19;;;;;;;11.20;4.75;;;28.60;93.20;;;;;;4211905;28;20089;-62
2022/06/29 06:26:20;;;;;;;6.68;4.78;;;28.60;93.10;;;;;;4211435;28;20023;-62
2022/06/29 06:28:21;;;;;;;9.20;4.60;;;28.50;93.30;;;;;;4212175;28;20048;-63
2022/06/29 06:30:23;;;;;;;7.97;4.55;;;28.10;93.60;;;;;;4211517;28;20383;-62
2022/06/29 06:32:24;;;;;;;9.90;5.25;;;27.90;94.00;;;;;;4212298;28;20650;-61
2022/06/29 06:34:26;;;;;;;9.88;4.35;;;28.00;94.20;;;;;;4211688;28;20456;-59
2022/06/29 06:36:27;;;;;;;12.75;4.70;;;28.10;94.50;;;;;;4212133;28;20044;-62
2022/06/29 06:38:28;;;;;;;11.30;4.72;;;28.20;94.20;;;;;;4211035;28;20092;-62
2022/06/29 06:42:49;;;;;;;;;;;29.80;93.10;;;;;;4211775;28;20525;-61
2022/06/29 06:44:50;;;;;;;17.20;4.78;;;29.80;92.40;;;;;;4212255;28;19914;-61
2022/06/29 06:46:51;;;;;;;9.30;4.00;;;29.90;92.80;;;;;;4211125;28;20476;-66
2022/06/29 06:48:53;;;;;;;11.82;4.72;;;29.90;92.70;;;;;;4212341;28;20112;-67
2022/06/29 06:50:54;;;;;;;10.07;4.45;;;30.00;92.50;;;;;;4210784;28;20028;-62
2022/06/29 06:52:55;;;;;;;15.35;5.22;;;29.80;92.60;;;;;;4212136;28;20036;-69
2022/06/29 06:54:56;;;;;;;15.15;4.80;;;29.70;92.80;;;;;;4211161;28;20109;-61
2022/06/29 06:56:57;;;;;;;8.15;4.68;;;29.70;92.90;;;;;;4211357;28;20094;-62
2022/06/29 06:58:58;;;;;;;7.40;4.30;;;29.60;92.90;;;;;;4211345;28;20020;-61
2022/06/29 07:01:00;;;;;;;6.90;4.20;;;29.10;93.30;;;;;;4211023;28;20040;-61
2022/06/29 07:03:01;;;;;;;9.85;5.75;;;28.60;94.00;;;;;;4211190;28;20047;-66
2022/06/29 07:05:03;;;;;;;8.85;4.30;;;28.40;94.40;;;;;;4211275;28;20889;-62
2022/06/29 07:07:05;;;;;;;5.72;4.15;;;28.50;94.50;;;;;;4211632;28;20181;-67
2022/06/29 07:09:06;;;;;;;8.45;4.93;;;28.50;94.50;;;;;;4210636;28;20032;-61
2022/06/29 07:11:08;;;;;;;7.88;3.67;;;28.70;94.40;;;;;;4211751;28;20537;-62
2022/06/29 07:13:09;;;;;;;6.22;3.20;;;28.60;94.20;;;;;;4210807;28;20545;-67
2022/06/29 07:15:10;;;;;;;6.22;3.28;;;28.60;94.20;;;;;;4211716;28;20028;-63
2022/06/29 07:17:11;;;;;;;5.05;2.85;;;28.70;94.00;;;;;;4210375;28;20097;-64
2022/06/29 07:19:12;;;;;;;2.80;2.60;;;28.70;93.80;;;;;;4211762;28;20616;-68
2022/06/29 07:21:14;;;;;;;5.38;2.72;;;28.70;93.70;;;;;;4210380;28;20082;-63
2022/06/29 07:23:15;;;;;;;8.07;2.45;;;28.70;93.60;;;;;;4211524;28;20024;-64
2022/06/29 07:25:16;;;;;;;8.23;2.80;;;28.60;93.60;;;;;;4210405;28;20093;-61
2022/06/29 07:27:17;;;;;;;3.75;2.65;;;28.70;93.40;;;;;;4211132;28;20489;-64
2022/06/29 07:29:18;;;;;;;5.32;2.20;;;28.80;93.20;;;;;;4210750;28;20769;-66
2022/06/29 07:31:19;;;;;;;9.05;3.17;;;28.90;93.20;;;;;;4210702;28;20024;-65
2022/06/29 07:33:21;;;;;;;7.88;2.72;;;28.90;93.10;;;;;;4211222;28;20109;-62
2022/06/29 07:35:22;;;;;;;3.70;2.53;;;28.80;93.10;;;;;;4210900;28;20567;-66
2022/06/29 07:37:23;;;;;;;9.35;2.88;;;29.10;93.00;;;;;;4211350;28;20035;-63
2022/06/29 07:39:25;;;;;;;8.70;2.60;;;29.00;93.00;;;;;;4210472;28;20028;-62
2022/06/29 07:41:26;;;;;;;4.97;2.42;;;29.00;93.00;;;;;;4211516;28;20438;-63
2022/06/29 07:43:28;;;;;;;4.43;3.00;;;29.40;92.90;;;;;;4210397;28;20443;-70
2022/06/29 07:45:29;;;;;;;3.55;2.70;;;29.50;92.70;;;;;;4211389;28;20110;-62
2022/06/29 07:47:31;;;;;;;4.47;2.47;;;29.40;92.50;;;;;;4210048;28;20036;-64
2022/06/29 07:49:32;;;;;;;4.80;2.75;;;29.30;92.60;;;;;;4211448;28;20089;-66
2022/06/29 07:51:34;;;;;;;4.97;2.58;;;29.30;92.60;;;;;;4209540;28;20474;-61
2022/06/29 07:53:35;;;;;;;6.32;2.67;;;29.40;92.60;;;;;;4211005;28;20024;-62
2022/06/29 07:55:36;;;;;;;8.50;2.85;;;29.70;92.30;;;;;;4209805;28;20494;-61
2022/06/29 07:57:37;;;;;;;3.75;2.67;;;29.80;92.10;;;;;;4210575;28;20101;-61
2022/06/29 07:59:39;;;;;;;3.90;2.38;;;29.90;91.90;;;;;;4210019;28;20422;-62
2022/06/29 08:01:40;;;;;;;2.63;2.42;;;29.80;92.00;;;;;;4210192;28;20056;-64
2022/06/29 08:03:41;;;;;;;3.08;2.35;;;29.80;91.70;;;;;;4210435;28;20397;-60
2022/06/29 08:05:42;;;;;;;4.57;2.70;;;30.00;91.80;;;;;;4210443;28;20056;-62
2022/06/29 08:07:43;;;;;;;3.38;2.63;;;30.20;91.40;;;;;;4210892;28;20040;-62
2022/06/29 08:09:44;;;;;;;3.78;2.20;;;30.40;91.20;;;;;;4209658;28;20048;-65
2022/06/29 08:11:45;;;;;;;6.35;2.33;;;30.70;91.00;;;;;;4210517;28;20093;-63
2022/06/29 08:13:47;;;;;;;5.30;1.75;;;30.70;90.70;;;;;;4208308;28;20047;-66
2022/06/29 08:15:48;;;;;;;2.30;2.10;;;30.70;89.00;;;;;;4211165;28;20043;-68
2022/06/29 08:17:51;;;;;;;6.32;1.75;;;30.80;88.30;;;;;;4209887;28;20119;-63
2022/06/29 08:19:52;;;;;;;2.15;1.70;;;30.80;87.50;;;;;;4210793;28;20036;-67
2022/06/29 08:21:53;;;;;;;6.68;2.13;;;30.90;86.80;;;;;;4209761;28;20024;-70
2022/06/29 08:23:54;;;;;;;3.45;1.63;;;30.80;86.10;;;;;;4210935;28;20040;-67
2022/06/29 08:25:56;;;;;;;5.38;1.77;;;30.80;85.30;;;;;;4210463;28;20477;-65
2022/06/29 08:27:58;;;;;;;2.05;1.65;;;30.80;84.60;;;;;;4213850;28;20448;-68
2022/06/29 08:30:00;;;;;;;4.88;1.92;;;31.10;83.90;;;;;;4213204;28;20040;-67
2022/06/29 08:32:01;;;;;;;3.75;1.85;;;31.30;83.50;;;;;;4213737;28;20126;-69
2022/06/29 08:34:05;;;;;;;5.20;1.70;;;31.30;82.70;;;;;;4213910;28;20085;-69
2022/06/29 08:36:06;;;;;;;2.65;1.77;;;31.20;81.80;;;;;;4213571;28;20880;-66
2022/06/29 08:38:08;;;;;;;2.55;2.28;;;31.00;81.80;;;;;;4213952;28;20088;-66
2022/06/29 08:40:11;;;;;;;2.75;1.90;;;31.10;81.80;;;;;;4212659;28;20120;-68
2022/06/29 08:42:16;;;;;;;2.05;1.92;;;31.10;81.10;;;;;;4213930;28;20020;-67
2022/06/29 08:44:17;;;;;;;5.47;2.45;;;31.00;80.50;;;;;;4212792;28;20032;-65
2022/06/29 08:46:19;;;;;;;4.97;1.90;;;30.90;80.50;;;;;;4213864;28;20085;-64
2022/06/29 08:48:21;;;;;;;6.25;1.73;;;30.90;80.20;;;;;;4212937;28;20085;-61
2022/06/29 08:50:22;;;;;;;1.85;1.63;;;31.00;80.40;;;;;;4214663;28;20081;-62
2022/06/29 08:52:25;;;;;;;3.58;2.13;;;31.00;79.40;;;;;;4213069;28;20101;-61
2022/06/29 08:54:28;;;;;;;7.85;1.95;;;31.10;79.00;;;;;;4214123;28;20024;-66
2022/06/29 08:56:30;;;;;;;4.53;1.65;;;31.20;78.30;;;;;;4212720;28;20040;-61
2022/06/29 08:58:33;;;;;;;1.70;1.42;;;31.20;77.60;;;;;;4213939;28;20043;-67
2022/06/29 09:00:38;;;;;;;1.63;1.52;;;31.20;76.60;;;;;;4212761;28;20422;-64
2022/06/29 09:02:40;;;;;;;2.10;1.90;;;31.20;76.50;;;;;;4211648;28;20040;-60
2022/06/29 09:04:41;;;;;;;2.90;1.85;;;31.20;76.30;;;;;;4213018;28;20040;-62
2022/06/29 09:06:43;;;;;;;4.32;2.20;;;31.20;76.40;;;;;;4213400;28;20032;-62
2022/06/29 09:08:44;;;;;;;2.28;1.55;;;31.10;76.20;;;;;;4212974;28;20040;-65
2022/06/29 09:10:45;;;;;;;1.70;1.40;;;31.00;75.30;;;;;;4212638;28;20090;-62
2022/06/29 09:12:49;;;;;;;3.28;1.25;;;31.00;75.40;;;;;;4213092;28;20077;-65
2022/06/29 09:14:51;;;;;;;1.67;1.30;;;31.10;75.00;;;;;;4212510;28;20012;-68
2022/06/29 09:16:54;;;;;;;4.97;1.52;;;31.10;75.00;;;;;;4213227;28;20036;-60
2022/06/29 09:18:57;;;;;;;3.33;1.42;;;31.00;74.00;;;;;;4212195;28;20055;-61
2022/06/29 09:21:05;;;;;;;3.53;1.55;;;31.10;73.30;;;;;;4213357;28;20442;-62
2022/06/29 09:23:09;;;;;;;3.92;1.63;;;31.30;73.00;;;;;;4212074;28;20442;-64
2022/06/29 09:25:24;;;;;;;6.13;1.58;;;31.30;73.20;;;;;;4213367;28;20121;-66
2022/06/29 09:27:25;;;;;;;1.92;1.83;;;31.40;72.90;;;;;;4211908;28;20431;-62
2022/06/29 09:29:29;;;;;;;6.03;2.00;;;31.40;72.80;;;;;;4213239;28;20443;-62
2022/06/29 09:31:30;;;;;;;2.55;1.60;;;31.40;71.90;;;;;;4211896;28;20105;-60
2022/06/29 09:33:32;;;;;;;2.67;1.50;;;31.40;71.60;;;;;;4213246;28;20032;-62
2022/06/29 09:35:35;;;;;;;3.15;1.40;;;31.50;71.60;;;;;;4210880;28;20040;-63
2022/06/29 09:37:36;;;;;;;3.97;1.60;;;31.70;71.10;;;;;;4212939;28;20055;-64
2022/06/29 09:39:43;;;;;;;2.70;1.63;;;31.80;70.80;;;;;;4212056;28;20024;-63
2022/06/29 09:41:44;;;;;;;3.40;1.60;;;31.80;70.90;;;;;;4213025;28;20086;-62
2022/06/29 09:43:47;;;;;;;2.13;1.40;;;31.80;69.90;;;;;;4211683;28;20023;-63
2022/06/29 09:45:49;;;;;;;4.05;2.30;;;31.70;69.00;;;;;;4212714;28;20085;-64
2022/06/29 09:47:50;;;;;;;5.03;1.90;;;31.50;69.40;;;;;;4212042;28;20057;-66
2022/06/29 09:50:02;;;;;;;2.55;1.90;;;31.40;68.70;;;;;;4212476;28;20036;-63
2022/06/29 09:52:05;;;;;;;3.20;1.70;;;31.40;68.80;;;;;;4211992;28;20515;-67
2022/06/29 09:54:07;;;;;;;3.47;1.58;;;31.40;69.70;;;;;;4212203;28;20024;-69
2022/06/29 09:56:13;;;;;;;3.03;2.05;;;31.50;69.60;;;;;;4211968;28;20085;-61
2022/06/29 09:58:20;;;;;;;2.60;1.30;;;31.40;67.90;;;;;;4211760;28;20081;-62
2022/06/29 10:02:45;;;;;;;7.65;1.67;;;31.20;68.40;;;;;;4212045;28;20048;-64
2022/06/29 10:04:46;;;;;;;2.88;1.70;;;31.10;68.70;;;;;;4212475;28;20557;-62
2022/06/29 10:06:49;;;;;;;2.25;1.42;;;31.20;69.00;;;;;;4211876;28;20434;-63
2022/06/29 10:08:51;;;;;;;5.35;2.10;;;31.40;69.00;;;;;;4212463;28;20420;-61
2022/06/29 10:11:01;;;;;;;8.10;1.77;;;31.50;68.40;;;;;;4211244;28;20028;-61
2022/06/29 10:15:45;;;;;;;4.10;1.40;;;31.60;68.00;;;;;;4211322;28;20093;-62
2022/06/29 10:18:06;;;;;;;3.60;1.85;;;31.60;66.90;;;;;;4211723;28;20121;-61
2022/06/29 10:20:24;;;;;;;6.38;1.40;;;31.70;66.90;;;;;;4211628;28;20095;-65
2022/06/29 10:22:28;;;;;;;3.85;1.20;;;31.80;67.70;;;;;;4211695;28;20042;-62
2022/06/29 10:24:30;;;;;;;1.92;1.33;;;31.80;65.80;;;;;;4211749;28;20048;-63
2022/06/29 10:26:32;;;;;;;2.83;1.60;;;31.70;66.30;;;;;;4211413;28;20020;-62
2022/06/29 10:28:33;;;;;;;5.90;1.90;;;31.80;66.30;;;;;;4211455;28;20044;-63
2022/06/29 10:30:35;;;;;;;4.13;1.77;;;31.80;66.50;;;;;;4211911;28;20036;-62
2022/06/29 10:32:38;;;;;;;4.80;1.65;;;31.70;66.90;;;;;;4211116;28;20077;-68
2022/06/29 10:35:05;;;;;;;1.85;1.60;;;31.70;67.00;;;;;;4212100;28;20040;-62
2022/06/29 10:37:11;;;;;;;1.35;1.20;;;31.60;66.70;;;;;;4210989;28;20044;-63
2022/06/29 10:39:12;;;;;;;1.80;1.40;;;31.70;66.10;;;;;;4211856;28;20032;-61
2022/06/29 10:43:36;;;;;;;1.77;1.42;;;31.60;65.70;;;;;;4212319;28;20032;-65
2022/06/29 10:45:46;;;;;;;2.30;1.60;;;31.60;65.90;;;;;;4211099;28;20207;-62
2022/06/29 10:47:56;;;;;;;1.40;1.30;;;31.70;65.60;;;;;;4211736;28;20096;-65
2022/06/29 10:50:23;;;;;;;;;;;31.70;65.30;;;;;;4210800;28;20039;-63